Terminal Aerodrome Forecast
Issued by NWS Charleston, WV

Current Version | Previous Version | Graphics & Text | Print | Product List | Glossary On
Versions: 1 2 3 4 5 6 7 8 9 10 11 12 13 14 15 16 17 18 19 20 21 22 23 24 25 26 27 28
000
FTUS41 KRLX 051126
TAFEKN
TAF
KEKN 051126Z 0512/0612 28010G18KT P6SM OVC040
      TEMPO 0512/0514 SCT015 OVC025
     FM051400 29009G18KT P6SM OVC025
     FM051600 29008KT P6SM OVC025
     FM051900 28006KT P6SM BKN035
     FM052200 00000KT P6SM BKN250
     FM061100 13006KT 5SM -RA OVC080=

USA.gov is the U.S. government's official web portal to all federal, state and local government web resources and services.